Decoded Metar for LKKV (KARLOVY VARY in CZECH REPUBLIC) (IATA:KLV) | Meteo·Mobile Aviation Weather
aviador You're here:

LKKV Decoded Metar

KARLOVY VARY in CZECH REPUBLIC
Report Time2018-10-17 21:00:00
UTC Time2018-10-17 21:22:57
Flight Rules vfr VFR
WindVRB at 01 kt
Visibility9999 m
Phenomena:N/A
Clouds:N/A
Expected CloudBase > 400 ft AGL from Temp-Dew spread
CeilingNone
Temp08°C (ISA -3)
Dew Point07°C (93% RH)
AAT6.9°C
QNH1020 hPa
Density Alt1,522 ft
Elevation1,982 ft
Report Wrong Elevation
Raw Report
LKKV 172100Z VRB01KT CAVOK 08/07 Q1020=

Extra information for LKKV:More info

Metar Taf Metar & Taf Last 4 Metars F.Rules Stats Wind Profile Meteogram Temp Stats Airport Information Weather charts Add Link Nearby VenuesMetar ALERT Operation Metar Decoded Social comments